Grand Forks, ND (58201)

3:22 AM CDT on July 25, 2014 (GMT -0500)
Grand Forks International (KGFK) Elev 843 ft | 47.95 °N, 97.18 °W | Change Station

Current weather conditions updated 29 minutes ago

Overcast
Overcast
70 °F
Feels Like 70 °F
N
8
Wind Variable Wind from SE

Today is forecast to be Warmer than yesterday.

Today
High -- | Low -- °F
--% Chance of Precip.
Yesterday
High -- | Low -- °F
Precip. -- in
5:56 AM 9:12 PM
Waning Crescent, 2% visible
Pressure 29.75 in
Visibility 10.0 miles
Clouds Overcast 3900 ft
Dew Point 61 °F
Humidity 73%
Rainfall 0.00 in
Snow Depth Not available.
UV 0 out of 12
Pollen 7.40 out of 12
Air Quality Not available.
Flu Activity Not available.
METAR KGFK 250753Z AUTO 13007KT 10SM OVC039 21/16 A2976 RMK AO2 SLP074 T02110161 TSNO

More Conditions Fewer Conditions

Pressure 29.75 in
Visibility 10.0 miles
Clouds Overcast 3900 ft
Dew Point 61 °F
Humidity 73%
Rainfall 0.00 in
Snow Depth Not available.
UV 0 out of 12
Pollen 7.40 out of 12
Air Quality Not available.
Flu Activity Not available.
METAR KGFK 250753Z AUTO 13007KT 10SM OVC039 21/16 A2976 RMK AO2 SLP074 T02110161 TSNO

More Conditions Fewer Conditions

10-Day Weather Forecast

Almanac

Astronomy

Jul. 25, 2014 Rise Set
Actual Time 5:56 AM CDT 9:12 PM CDT
Civil Twilight 5:18 AM CDT 9:50 PM CDT
Nautical Twilight 4:29 AM CDT 10:39 PM CDT
Astronomical Twilight 3:25 AM CDT 11:41 PM CDT
Moon 4:59 AM CDT 8:05 PM CDT
Length of Visible Light 16h 31m
Length of Day
15h 16m
Tomorrow will be 2m 27s shorter.
Waning Crescent, 2% of the Moon is Illuminated
Today
Waning Crescent
Jul 26
New
Aug 3
First Quarter
Aug 10
Full
Aug 17
Last Quarter

Today's Extremes

State Highs State Lows

Community

WunderPhotos

Upload Photos

1,737,273 photos uploaded!

Nearby

Snow Depth

Station Depth Elevation
No new snow has been reported.

Earthquake Activity

City Distance Mag. Time & Date
No recent earthquake activity has been reported nearby.
Minimum magnitude displayed is 2.5.

Coastal Water Temperatures

Place Temperature
No Stations Reporting

Nearby Weather Stations

There are no personal weather stations in this area.